createdAt,value
2022-08-26T00:01:55.587Z,72.70
2022-08-26T00:04:25.617Z,72.70
2022-08-26T00:06:55.014Z,72.70
2022-08-26T00:09:24.899Z,72.70
2022-08-26T00:11:54.067Z,72.70
2022-08-26T00:14:27.105Z,72.70
2022-08-26T00:16:55.739Z,72.60
2022-08-26T00:19:23.154Z,72.80
2022-08-26T00:21:50.563Z,72.70
2022-08-26T00:24:21.028Z,72.60
2022-08-26T00:26:49.722Z,72.70
2022-08-26T00:29:17.810Z,72.70
2022-08-26T00:31:45.663Z,72.70
2022-08-26T00:34:14.302Z,72.80
2022-08-26T00:36:43.695Z,72.70
2022-08-26T00:39:11.304Z,72.70
2022-08-26T00:41:40.395Z,72.70
2022-08-26T00:44:08.835Z,72.80
2022-08-26T00:46:46.413Z,72.80
2022-08-26T00:49:31.203Z,72.90
2022-08-26T00:52:01.072Z,72.80
2022-08-26T00:54:33.146Z,72.80
2022-08-26T00:57:15.995Z,72.80
2022-08-26T00:59:51.522Z,72.80
2022-08-26T01:02:21.114Z,72.80
2022-08-26T01:04:56.408Z,72.80
2022-08-26T01:07:26.388Z,72.90
2022-08-26T01:09:55.704Z,72.80
2022-08-26T01:12:25.109Z,72.80
2022-08-26T01:14:53.034Z,72.80
2022-08-26T01:17:20.326Z,72.90
2022-08-26T01:19:52.287Z,72.80
2022-08-26T01:22:58.192Z,72.80
2022-08-26T01:25:32.184Z,72.80
2022-08-26T01:28:05.941Z,72.90
2022-08-26T01:30:34.951Z,72.90
2022-08-26T01:33:05.154Z,72.90
2022-08-26T01:35:32.589Z,72.90
2022-08-26T01:38:02.366Z,73.00
2022-08-26T01:40:34.117Z,73.60
2022-08-26T01:43:02.443Z,73.60
2022-08-26T01:45:36.059Z,72.90
2022-08-26T01:48:07.477Z,72.90
2022-08-26T01:50:36.380Z,72.80
2022-08-26T01:53:08.562Z,73.00
2022-08-26T01:55:38.974Z,72.90
2022-08-26T01:58:12.776Z,72.90
2022-08-26T02:00:40.499Z,72.80
2022-08-26T02:03:17.773Z,72.70
2022-08-26T02:05:53.663Z,72.80
2022-08-26T02:08:39.380Z,72.90
2022-08-26T02:11:07.008Z,72.90
2022-08-26T02:13:38.625Z,72.80
2022-08-26T02:16:08.526Z,72.80
2022-08-26T02:18:40.087Z,72.80
2022-08-26T02:21:09.755Z,72.70
2022-08-26T02:23:37.120Z,72.80
2022-08-26T02:26:17.985Z,72.80
2022-08-26T02:29:00.194Z,72.80
2022-08-26T02:31:27.917Z,72.80
2022-08-26T02:33:55.719Z,72.80
2022-08-26T02:36:28.529Z,72.80
2022-08-26T02:38:56.037Z,72.70
2022-08-26T02:41:23.819Z,72.80
2022-08-26T02:43:51.912Z,72.80
2022-08-26T02:46:27.960Z,72.80
2022-08-26T02:48:58.542Z,72.80
2022-08-26T02:51:25.828Z,72.80
2022-08-26T02:53:53.830Z,72.70
2022-08-26T02:56:23.196Z,72.70
2022-08-26T02:58:50.563Z,72.80
2022-08-26T03:01:25.474Z,72.70
2022-08-26T03:03:53.262Z,72.80
2022-08-26T03:06:20.842Z,72.70
2022-08-26T03:08:48.045Z,72.70
2022-08-26T03:11:19.148Z,72.90
2022-08-26T03:13:46.676Z,72.80
2022-08-26T03:16:14.927Z,72.90
2022-08-26T03:18:42.855Z,73.00
2022-08-26T03:21:20.164Z,72.90
2022-08-26T03:23:48.330Z,73.00
2022-08-26T03:26:16.356Z,73.10
2022-08-26T03:29:02.215Z,73.20
2022-08-26T03:31:30.155Z,73.20
2022-08-26T03:33:59.781Z,73.20
2022-08-26T03:36:27.668Z,73.10
2022-08-26T03:38:54.854Z,73.10
2022-08-26T03:41:22.033Z,73.20
2022-08-26T03:43:51.005Z,73.20
2022-08-26T03:46:20.664Z,73.30
2022-08-26T03:48:48.313Z,73.40
2022-08-26T03:51:20.212Z,73.40
2022-08-26T03:53:48.401Z,73.30
2022-08-26T03:56:16.043Z,73.40
2022-08-26T03:58:44.778Z,73.40
2022-08-26T04:01:15.696Z,73.30
2022-08-26T04:04:00.607Z,73.30
2022-08-26T04:06:36.170Z,73.30
2022-08-26T04:09:07.030Z,73.30
2022-08-26T04:11:38.205Z,73.30
2022-08-26T04:14:09.851Z,73.30
2022-08-26T04:16:37.504Z,73.20
2022-08-26T04:19:06.704Z,73.30
2022-08-26T04:21:35.430Z,73.30
2022-08-26T04:24:03.518Z,73.30
2022-08-26T04:26:39.475Z,73.20
2022-08-26T04:29:13.819Z,73.20
2022-08-26T04:31:41.487Z,73.20
2022-08-26T04:34:08.765Z,73.30
2022-08-26T04:36:38.332Z,73.20
2022-08-26T04:39:05.839Z,73.30
2022-08-26T04:41:34.118Z,73.30
2022-08-26T04:44:02.484Z,73.20
2022-08-26T04:46:30.192Z,73.20
2022-08-26T04:48:57.385Z,73.20
2022-08-26T04:51:28.284Z,73.20
2022-08-26T04:53:57.573Z,73.90
2022-08-26T04:56:32.769Z,73.20
2022-08-26T04:59:01.963Z,73.30
2022-08-26T05:01:32.694Z,73.30
2022-08-26T05:04:01.468Z,73.30
2022-08-26T05:06:36.880Z,73.30
2022-08-26T05:09:05.216Z,73.40
2022-08-26T05:11:34.152Z,73.30
2022-08-26T05:14:02.576Z,73.40
2022-08-26T05:16:30.496Z,73.30
2022-08-26T05:18:58.112Z,73.30
2022-08-26T05:21:29.229Z,73.30
2022-08-26T05:23:57.132Z,73.40
2022-08-26T05:26:28.447Z,73.40
2022-08-26T05:28:56.980Z,73.40
2022-08-26T05:31:27.658Z,73.50
2022-08-26T05:33:57.726Z,73.60
2022-08-26T05:36:27.680Z,73.70
2022-08-26T05:38:56.710Z,73.70
2022-08-26T05:41:34.657Z,73.60
2022-08-26T05:44:06.111Z,73.60
2022-08-26T05:46:34.660Z,73.80
2022-08-26T05:49:04.089Z,73.90
2022-08-26T05:51:35.169Z,73.80
2022-08-26T05:54:04.173Z,74.00
2022-08-26T05:56:33.395Z,73.90
2022-08-26T05:59:02.400Z,74.00
2022-08-26T06:01:35.806Z,74.00
2022-08-26T06:04:06.131Z,74.20
2022-08-26T06:06:36.779Z,74.30
2022-08-26T06:09:09.394Z,74.40
2022-08-26T06:11:38.965Z,74.60
2022-08-26T06:14:08.272Z,74.80
2022-08-26T06:16:41.578Z,75.00
2022-08-26T06:19:11.685Z,75.30
2022-08-26T06:21:41.663Z,75.10
2022-08-26T06:24:32.675Z,75.30
2022-08-26T06:27:05.633Z,75.30
2022-08-26T06:29:34.921Z,75.70
2022-08-26T06:32:04.669Z,75.50
2022-08-26T06:34:32.824Z,75.60
2022-08-26T06:37:02.792Z,75.50
2022-08-26T06:39:31.393Z,75.80
2022-08-26T06:42:00.357Z,76.00
2022-08-26T06:44:28.085Z,76.10
2022-08-26T06:46:55.421Z,76.00
2022-08-26T06:49:26.852Z,76.40
2022-08-26T06:51:58.688Z,76.40
2022-08-26T06:54:27.731Z,76.60
2022-08-26T06:56:57.036Z,76.60
2022-08-26T06:59:24.622Z,77.30
2022-08-26T07:01:52.461Z,77.40
2022-08-26T07:04:23.220Z,77.70
2022-08-26T07:06:53.621Z,77.90
2022-08-26T07:09:27.746Z,78.10
2022-08-26T07:11:56.439Z,78.10
2022-08-26T07:14:25.304Z,78.50
2022-08-26T07:16:54.188Z,78.70
2022-08-26T07:19:29.796Z,79.20
2022-08-26T07:22:04.233Z,79.10
2022-08-26T07:24:39.113Z,79.40
2022-08-26T07:27:09.900Z,79.30
2022-08-26T07:29:39.553Z,79.60
2022-08-26T07:32:07.988Z,79.30
2022-08-26T07:34:36.657Z,79.90
2022-08-26T07:37:04.856Z,80.00
2022-08-26T07:39:36.414Z,79.90
2022-08-26T07:42:07.791Z,80.10
2022-08-26T07:44:39.882Z,79.80
2022-08-26T07:47:24.603Z,79.70
2022-08-26T07:49:55.462Z,79.40
2022-08-26T07:52:26.738Z,79.70
2022-08-26T07:54:56.114Z,79.90
2022-08-26T07:57:24.425Z,79.80
2022-08-26T07:59:54.033Z,79.50
2022-08-26T08:02:23.766Z,79.80
2022-08-26T08:04:51.848Z,79.20
2022-08-26T08:07:19.285Z,79.30
2022-08-26T08:09:49.733Z,79.00
2022-08-26T08:12:17.929Z,78.90
2022-08-26T08:14:47.012Z,79.60
2022-08-26T08:17:15.828Z,79.30
2022-08-26T08:19:43.648Z,79.50
2022-08-26T08:22:17.897Z,79.30
2022-08-26T08:24:49.717Z,79.20
2022-08-26T08:27:22.806Z,79.40
2022-08-26T08:29:54.378Z,79.10
2022-08-26T08:32:23.405Z,79.10
2022-08-26T08:34:50.634Z,79.00
2022-08-26T08:37:17.864Z,79.10
2022-08-26T08:39:45.060Z,79.20
2022-08-26T08:42:24.653Z,79.10
2022-08-26T08:44:54.251Z,79.20
2022-08-26T08:47:47.706Z,80.50
2022-08-26T08:50:38.628Z,80.60
2022-08-26T08:53:12.140Z,80.60
2022-08-26T08:55:57.066Z,80.30
2022-08-26T08:58:43.316Z,80.70
2022-08-26T09:01:25.947Z,79.50
2022-08-26T09:04:22.235Z,79.30
2022-08-26T09:06:52.594Z,79.30
2022-08-26T09:09:41.820Z,79.30
2022-08-26T09:12:17.013Z,79.30
2022-08-26T09:14:49.384Z,79.20
2022-08-26T09:17:31.462Z,79.20
2022-08-26T09:20:27.826Z,79.10
2022-08-26T09:22:57.520Z,79.10
2022-08-26T09:25:24.767Z,79.00
2022-08-26T09:27:53.670Z,78.90
2022-08-26T09:30:34.925Z,79.00
2022-08-26T09:33:10.892Z,79.10
2022-08-26T09:35:47.057Z,78.70
2022-08-26T09:38:28.280Z,78.80
2022-08-26T09:41:01.122Z,78.70
2022-08-26T09:43:29.145Z,78.80
2022-08-26T09:46:14.174Z,78.90
2022-08-26T09:48:43.135Z,78.70
2022-08-26T09:51:26.500Z,78.60
2022-08-26T09:53:57.653Z,78.70
2022-08-26T09:56:34.685Z,78.80
2022-08-26T09:59:03.276Z,78.70
2022-08-26T10:01:37.586Z,79.10
2022-08-26T10:04:26.771Z,78.50
2022-08-26T10:07:04.371Z,78.50
2022-08-26T10:09:40.795Z,78.40
2022-08-26T10:12:13.751Z,78.30
2022-08-26T10:14:56.607Z,78.20
2022-08-26T10:17:42.092Z,78.30
2022-08-26T10:20:23.364Z,78.20
2022-08-26T10:23:18.127Z,78.30
2022-08-26T10:25:59.029Z,78.30
2022-08-26T10:28:37.627Z,78.90
2022-08-26T10:31:28.427Z,78.30
2022-08-26T10:34:00.194Z,78.10
2022-08-26T10:37:14.680Z,78.00
2022-08-26T10:39:57.088Z,78.00
2022-08-26T10:42:37.813Z,78.10
2022-08-26T10:45:17.206Z,78.00
2022-08-26T10:47:53.176Z,78.20
2022-08-26T10:50:22.400Z,77.80
2022-08-26T10:53:00.598Z,77.80
2022-08-26T10:55:42.779Z,77.60
2022-08-26T10:58:32.120Z,77.70
2022-08-26T11:01:32.764Z,77.70
2022-08-26T11:04:11.742Z,77.50
2022-08-26T11:06:39.375Z,77.50
2022-08-26T11:09:09.385Z,77.40
2022-08-26T11:11:45.471Z,77.70
2022-08-26T11:14:29.095Z,77.40
2022-08-26T11:16:58.799Z,77.40
2022-08-26T11:19:59.432Z,77.30
2022-08-26T11:22:36.231Z,77.10
2022-08-26T11:25:09.581Z,77.30
2022-08-26T11:27:38.775Z,77.20
2022-08-26T11:30:09.508Z,77.00
2022-08-26T11:32:40.067Z,76.90
2022-08-26T11:35:18.649Z,76.70
2022-08-26T11:38:02.351Z,76.80
2022-08-26T11:40:40.645Z,76.60
2022-08-26T11:43:19.565Z,76.60
2022-08-26T11:45:59.701Z,76.60
2022-08-26T11:48:26.926Z,76.60
2022-08-26T11:51:00.661Z,76.60
2022-08-26T11:53:28.852Z,76.70
2022-08-26T11:55:59.363Z,76.60
2022-08-26T11:58:28.303Z,76.70
2022-08-26T12:00:59.933Z,76.50
2022-08-26T12:03:46.608Z,76.50
2022-08-26T12:06:30.977Z,76.60
2022-08-26T12:09:02.254Z,76.40
2022-08-26T12:11:34.647Z,76.50
2022-08-26T12:14:05.630Z,76.60
2022-08-26T12:16:40.543Z,76.60
2022-08-26T12:19:33.271Z,76.30
2022-08-26T12:22:23.431Z,76.30
2022-08-26T12:24:58.705Z,76.30
2022-08-26T12:27:31.968Z,76.40
2022-08-26T12:30:02.762Z,76.50
2022-08-26T12:32:31.545Z,76.40
2022-08-26T12:35:02.008Z,76.30
2022-08-26T12:37:33.826Z,76.20
2022-08-26T12:40:25.648Z,76.30
2022-08-26T12:42:53.510Z,76.10
2022-08-26T12:46:00.663Z,76.00
2022-08-26T12:48:36.126Z,75.80
2022-08-26T12:51:06.951Z,75.80
2022-08-26T12:53:41.382Z,76.00
2022-08-26T12:56:27.911Z,75.70
2022-08-26T12:59:02.815Z,75.60
2022-08-26T13:01:41.006Z,75.60
2022-08-26T13:04:28.625Z,75.60
2022-08-26T13:07:27.219Z,75.70
2022-08-26T13:09:57.626Z,75.60
2022-08-26T13:12:35.060Z,75.50
2022-08-26T13:15:03.777Z,75.50
2022-08-26T13:17:32.969Z,75.30
2022-08-26T13:20:04.119Z,75.30
2022-08-26T13:22:32.359Z,75.30
2022-08-26T13:25:00.009Z,75.30
2022-08-26T13:27:28.106Z,75.20
2022-08-26T13:29:57.476Z,75.20
2022-08-26T13:32:26.845Z,75.20
2022-08-26T13:34:56.328Z,75.20
2022-08-26T13:37:29.311Z,75.10
2022-08-26T13:40:07.311Z,75.20
2022-08-26T13:42:34.755Z,75.30
2022-08-26T13:45:02.580Z,75.30
2022-08-26T13:47:29.889Z,75.30
2022-08-26T13:49:57.171Z,75.00
2022-08-26T13:52:30.735Z,74.60
2022-08-26T13:55:00.443Z,74.30
2022-08-26T13:57:30.133Z,74.50
2022-08-26T13:59:59.537Z,74.80
2022-08-26T14:02:27.917Z,75.10
2022-08-26T14:04:56.115Z,75.20
2022-08-26T14:07:23.621Z,75.30
2022-08-26T14:09:50.923Z,75.40
2022-08-26T14:12:18.083Z,75.50
2022-08-26T14:14:45.283Z,75.30
2022-08-26T14:17:20.917Z,75.40
2022-08-26T14:19:50.413Z,75.40
2022-08-26T14:22:20.003Z,75.40
2022-08-26T14:24:47.746Z,75.60
2022-08-26T14:27:14.999Z,76.40
2022-08-26T14:29:42.696Z,75.70
2022-08-26T14:32:23.004Z,75.60
2022-08-26T14:34:50.796Z,75.60
2022-08-26T14:37:18.419Z,75.80
2022-08-26T14:39:46.355Z,75.80
2022-08-26T14:42:16.768Z,75.80
2022-08-26T14:44:48.395Z,75.90
2022-08-26T14:47:15.634Z,76.70
2022-08-26T14:49:42.784Z,76.00
2022-08-26T14:52:09.927Z,76.00
2022-08-26T14:54:37.896Z,76.00
2022-08-26T14:57:08.238Z,76.10
2022-08-26T14:59:39.582Z,76.20
2022-08-26T15:02:09.061Z,76.20
2022-08-26T15:04:41.732Z,76.30
2022-08-26T15:07:09.547Z,76.40
2022-08-26T15:09:40.060Z,76.50
2022-08-26T15:12:07.401Z,76.50
2022-08-26T15:14:34.743Z,76.70
2022-08-26T15:17:02.079Z,76.70
2022-08-26T15:19:29.317Z,76.80
2022-08-26T15:21:56.736Z,76.90
2022-08-26T15:24:26.041Z,76.90
2022-08-26T15:26:53.426Z,77.00
2022-08-26T15:29:21.094Z,77.50
2022-08-26T15:31:48.877Z,77.30
2022-08-26T15:34:17.278Z,77.40
2022-08-26T15:36:46.686Z,77.50
2022-08-26T15:39:15.639Z,77.60
2022-08-26T15:41:42.851Z,77.50
2022-08-26T15:44:11.158Z,77.70
2022-08-26T15:46:38.723Z,77.70
2022-08-26T15:49:07.306Z,77.80
2022-08-26T15:51:45.712Z,77.90
2022-08-26T15:54:14.417Z,77.80
2022-08-26T15:56:41.599Z,77.70
2022-08-26T15:59:11.849Z,77.80
2022-08-26T16:01:39.564Z,78.50
2022-08-26T16:04:07.725Z,77.90
2022-08-26T16:06:37.656Z,77.80
2022-08-26T16:09:06.131Z,78.10
2022-08-26T16:11:34.366Z,78.20
2022-08-26T16:14:01.789Z,78.20
2022-08-26T16:16:29.074Z,78.10
2022-08-26T16:18:56.328Z,78.20
2022-08-26T16:21:27.841Z,78.30
2022-08-26T16:23:56.760Z,78.30
2022-08-26T16:26:28.301Z,78.40
2022-08-26T16:28:56.241Z,78.30
2022-08-26T16:31:24.203Z,78.50
2022-08-26T16:33:51.756Z,78.60
2022-08-26T16:36:19.974Z,78.70
2022-08-26T16:38:53.349Z,78.70
2022-08-26T16:41:21.046Z,78.70
2022-08-26T16:43:48.613Z,78.90
2022-08-26T16:46:16.290Z,79.00
2022-08-26T16:48:45.332Z,78.90
2022-08-26T16:51:16.063Z,78.90
2022-08-26T16:53:44.400Z,79.10
2022-08-26T16:56:20.247Z,79.20
2022-08-26T16:58:48.464Z,79.30
2022-08-26T17:01:17.199Z,79.40
2022-08-26T17:03:44.454Z,79.30
2022-08-26T17:06:12.067Z,79.50
2022-08-26T17:08:40.493Z,79.40
2022-08-26T17:11:08.583Z,79.40
2022-08-26T17:13:36.964Z,79.40
2022-08-26T17:16:09.455Z,79.50
2022-08-26T17:18:37.397Z,79.40
2022-08-26T17:21:08.259Z,79.50
2022-08-26T17:23:38.019Z,79.50
2022-08-26T17:26:05.460Z,79.60
2022-08-26T17:28:33.260Z,79.50
2022-08-26T17:31:01.391Z,79.50
2022-08-26T17:33:29.291Z,79.50
2022-08-26T17:35:56.898Z,79.50
2022-08-26T17:38:24.422Z,79.50
2022-08-26T17:40:52.158Z,79.50
2022-08-26T17:43:19.830Z,79.40
2022-08-26T17:45:47.338Z,79.40
2022-08-26T17:48:14.658Z,79.40
2022-08-26T17:50:43.320Z,79.40
2022-08-26T17:53:18.772Z,79.50
2022-08-26T17:55:47.440Z,79.40
2022-08-26T17:58:17.321Z,79.50
2022-08-26T18:00:50.422Z,79.50
2022-08-26T18:03:18.584Z,79.50
2022-08-26T18:05:50.937Z,79.50
2022-08-26T18:08:18.691Z,79.30
2022-08-26T18:10:47.000Z,79.30
2022-08-26T18:13:16.985Z,79.30
2022-08-26T18:15:45.769Z,79.20
2022-08-26T18:18:16.290Z,79.20
2022-08-26T18:20:44.763Z,79.10
2022-08-26T18:23:13.199Z,79.10
2022-08-26T18:25:42.377Z,79.10
2022-08-26T18:28:09.978Z,79.10
2022-08-26T18:30:37.296Z,79.00
2022-08-26T18:33:04.704Z,78.90
2022-08-26T18:35:43.192Z,78.90
2022-08-26T18:38:11.841Z,78.80
2022-08-26T18:40:41.031Z,78.90
2022-08-26T18:43:08.796Z,78.80
2022-08-26T18:45:36.378Z,78.70
2022-08-26T18:48:04.284Z,78.60
2022-08-26T18:50:31.726Z,78.70
2022-08-26T18:52:58.908Z,78.70
2022-08-26T18:55:26.122Z,78.60
2022-08-26T18:57:53.257Z,78.60
2022-08-26T19:00:20.540Z,78.50
2022-08-26T19:02:51.924Z,78.60
2022-08-26T19:05:19.961Z,78.40
2022-08-26T19:07:47.946Z,78.50
2022-08-26T19:10:15.357Z,78.40
2022-08-26T19:12:42.702Z,78.40
2022-08-26T19:15:11.592Z,78.30
2022-08-26T19:17:38.871Z,78.40
2022-08-26T19:20:06.556Z,78.40
2022-08-26T19:22:33.881Z,78.40
2022-08-26T19:25:01.456Z,78.40
2022-08-26T19:27:28.664Z,78.40
2022-08-26T19:29:57.635Z,78.40
2022-08-26T19:32:25.398Z,78.30
2022-08-26T19:34:53.009Z,78.30
2022-08-26T19:37:21.625Z,78.30
2022-08-26T19:39:49.057Z,78.40
2022-08-26T19:42:16.761Z,78.40
2022-08-26T19:45:02.418Z,78.30
2022-08-26T19:47:29.681Z,78.40
2022-08-26T19:49:57.224Z,78.40
2022-08-26T19:52:29.829Z,78.20
2022-08-26T19:54:58.179Z,78.20
2022-08-26T19:57:25.745Z,78.20
2022-08-26T19:59:52.865Z,78.10
2022-08-26T20:02:20.325Z,78.10
2022-08-26T20:04:47.763Z,78.00
2022-08-26T20:07:18.559Z,77.90
2022-08-26T20:09:47.049Z,77.80
2022-08-26T20:12:15.546Z,77.80
2022-08-26T20:14:43.970Z,77.80
2022-08-26T20:17:11.705Z,77.80
2022-08-26T20:19:57.650Z,77.80
2022-08-26T20:22:25.620Z,77.60
2022-08-26T20:24:52.932Z,77.50
2022-08-26T20:27:27.674Z,77.50
2022-08-26T20:30:06.765Z,77.50
2022-08-26T20:32:35.668Z,77.50
2022-08-26T20:35:03.743Z,77.50
2022-08-26T20:37:30.875Z,77.40
2022-08-26T20:39:58.864Z,77.50
2022-08-26T20:42:26.643Z,77.40
2022-08-26T20:44:54.983Z,77.30
2022-08-26T20:47:23.306Z,77.30
2022-08-26T20:49:52.414Z,77.30
2022-08-26T20:52:20.175Z,77.30
2022-08-26T20:54:47.417Z,77.30
2022-08-26T20:57:14.852Z,77.40
2022-08-26T20:59:43.099Z,77.30
2022-08-26T21:02:10.390Z,77.20
2022-08-26T21:04:37.655Z,77.20
2022-08-26T21:07:04.917Z,77.10
2022-08-26T21:09:33.221Z,77.20
2022-08-26T21:12:00.397Z,77.20
2022-08-26T21:14:27.912Z,77.20
2022-08-26T21:16:55.358Z,77.20
2022-08-26T21:19:22.643Z,77.20
2022-08-26T21:21:50.099Z,77.10
2022-08-26T21:24:17.582Z,77.20
2022-08-26T21:26:44.920Z,77.20
2022-08-26T21:29:13.822Z,77.10
2022-08-26T21:31:46.086Z,77.20
2022-08-26T21:34:16.389Z,77.10
2022-08-26T21:36:47.878Z,77.50
2022-08-26T21:39:15.921Z,77.10
2022-08-26T21:41:44.442Z,77.00
2022-08-26T21:44:12.842Z,77.10
2022-08-26T21:46:40.627Z,77.00
2022-08-26T21:49:10.346Z,76.90
2022-08-26T21:51:41.018Z,77.60
2022-08-26T21:54:12.853Z,76.90
2022-08-26T21:56:44.338Z,76.80
2022-08-26T21:59:12.772Z,76.70
2022-08-26T22:01:40.035Z,76.90
2022-08-26T22:04:08.972Z,76.70
2022-08-26T22:06:43.334Z,76.80
2022-08-26T22:09:12.126Z,76.80
2022-08-26T22:11:39.659Z,76.80
2022-08-26T22:14:06.860Z,76.80
2022-08-26T22:16:34.063Z,76.70
2022-08-26T22:19:01.334Z,76.70
2022-08-26T22:21:28.654Z,76.70
2022-08-26T22:23:58.350Z,76.50
2022-08-26T22:26:28.821Z,76.50
2022-08-26T22:28:59.182Z,76.60
2022-08-26T22:31:37.639Z,76.40
2022-08-26T22:34:11.715Z,76.30
2022-08-26T22:36:44.175Z,76.20
2022-08-26T22:39:16.833Z,76.20
2022-08-26T22:41:45.144Z,76.30
2022-08-26T22:44:12.934Z,76.10
2022-08-26T22:46:41.390Z,76.00
2022-08-26T22:49:10.426Z,76.30
2022-08-26T22:51:40.583Z,76.40
2022-08-26T22:54:08.050Z,76.20
2022-08-26T22:56:35.524Z,76.10
2022-08-26T22:59:04.217Z,76.10
2022-08-26T23:01:31.599Z,75.90
2022-08-26T23:03:58.815Z,76.00
2022-08-26T23:06:25.945Z,75.90
2022-08-26T23:08:53.262Z,76.10
2022-08-26T23:11:20.463Z,76.00
2022-08-26T23:13:47.660Z,76.20
2022-08-26T23:16:14.800Z,76.00
2022-08-26T23:18:42.567Z,76.20
2022-08-26T23:21:10.744Z,76.20
2022-08-26T23:23:38.560Z,76.00
2022-08-26T23:26:07.942Z,76.10
2022-08-26T23:28:40.330Z,76.20
2022-08-26T23:31:07.936Z,75.90
2022-08-26T23:33:53.942Z,76.00
2022-08-26T23:36:22.699Z,76.20
2022-08-26T23:38:52.710Z,76.10
2022-08-26T23:41:23.531Z,76.00
2022-08-26T23:43:51.706Z,76.20
2022-08-26T23:46:19.416Z,76.20
2022-08-26T23:48:46.841Z,76.10
2022-08-26T23:51:32.693Z,75.90
2022-08-26T23:54:00.026Z,75.90
2022-08-26T23:56:27.197Z,75.80
2022-08-26T23:58:55.430Z,76.00
